createdAt,value
2023-04-09T00:01:28.901Z,98926.74
2023-04-09T00:03:57.311Z,98928.59
2023-04-09T00:06:26.177Z,98925.27
2023-04-09T00:08:54.394Z,98927.86
2023-04-09T00:11:22.756Z,98926.05
2023-04-09T00:13:51.176Z,98923.67
2023-04-09T00:16:19.515Z,98925.40
2023-04-09T00:18:48.909Z,98928.03
2023-04-09T00:21:18.386Z,98932.31
2023-04-09T00:23:46.672Z,98935.57
2023-04-09T00:26:14.930Z,98936.20
2023-04-09T00:28:43.433Z,98932.54
2023-04-09T00:31:12.376Z,98933.08
2023-04-09T00:33:40.672Z,98933.26
2023-04-09T00:36:09.226Z,98933.47
2023-04-09T00:38:37.533Z,98936.44
2023-04-09T00:41:07.118Z,98936.04
2023-04-09T00:43:35.372Z,98938.10
2023-04-09T00:46:04.961Z,98938.83
2023-04-09T00:48:33.615Z,98938.70
2023-04-09T00:51:01.923Z,98931.55
2023-04-09T00:53:30.610Z,98928.71
2023-04-09T00:55:58.947Z,98928.29
2023-04-09T00:58:27.312Z,98925.29
2023-04-09T01:00:56.784Z,98928.40
2023-04-09T01:03:25.574Z,98926.84
2023-04-09T01:06:30.971Z,98927.95
2023-04-09T01:09:09.466Z,98926.86
2023-04-09T01:11:46.805Z,98924.70
2023-04-09T01:14:38.141Z,98923.29
2023-04-09T01:17:26.590Z,98924.75
2023-04-09T01:20:01.889Z,98925.71
2023-04-09T01:22:41.499Z,98923.31
2023-04-09T01:25:32.789Z,98925.05
2023-04-09T01:28:21.366Z,98923.70
2023-04-09T01:30:57.679Z,98921.05
2023-04-09T01:33:27.267Z,98919.54
2023-04-09T01:35:56.714Z,98917.73
2023-04-09T01:38:26.348Z,98917.14
2023-04-09T01:40:56.797Z,98918.98
2023-04-09T01:43:27.452Z,98925.52
2023-04-09T01:45:56.056Z,98923.77
2023-04-09T01:48:24.555Z,98923.34
2023-04-09T01:50:54.344Z,98926.98
2023-04-09T01:53:22.826Z,98925.59
2023-04-09T01:55:51.058Z,98926.03
2023-04-09T01:58:19.425Z,98923.94
2023-04-09T02:00:48.202Z,98924.74
2023-04-09T02:03:24.694Z,98928.12
2023-04-09T02:06:13.653Z,98928.15
2023-04-09T02:08:46.589Z,98927.80
2023-04-09T02:11:16.107Z,98926.09
2023-04-09T02:13:45.878Z,98925.98
2023-04-09T02:20:31.971Z,98922.12
2023-04-09T02:30:59.514Z,98926.59
2023-04-09T02:34:07.790Z,98922.42
2023-04-09T02:49:09.767Z,98926.06
2023-04-09T02:55:55.451Z,98923.62
2023-04-09T03:02:41.650Z,98925.20
2023-04-09T03:09:08.657Z,98929.54
2023-04-09T03:15:54.850Z,98926.86
2023-04-09T03:19:03.589Z,98926.70
2023-04-09T03:30:10.315Z,98920.46
2023-04-09T03:41:18.943Z,98923.83
2023-04-09T03:44:30.835Z,98925.80
2023-04-09T03:51:22.453Z,98930.77
2023-04-09T03:54:16.155Z,98934.42
2023-04-09T04:01:02.590Z,98933.58
2023-04-09T04:16:28.581Z,98938.11
2023-04-09T04:23:16.470Z,98942.27
2023-04-09T04:30:54.960Z,98941.62
2023-04-09T04:37:41.316Z,98941.64
2023-04-09T04:44:27.647Z,98950.40
2023-04-09T04:47:36.138Z,98951.31
2023-04-09T04:54:23.164Z,98952.78
2023-04-09T04:57:31.735Z,98952.23
2023-04-09T05:08:38.462Z,98943.73
2023-04-09T05:11:57.360Z,98940.58
2023-04-09T05:18:43.843Z,98944.12
2023-04-09T05:21:32.061Z,98939.67
2023-04-09T05:28:19.804Z,98937.04
2023-04-09T05:31:29.589Z,98937.42
2023-04-09T05:38:20.465Z,98937.48
2023-04-09T05:41:09.682Z,98936.13
2023-04-09T05:52:20.073Z,98939.66
2023-04-09T06:07:07.103Z,98943.73
2023-04-09T06:09:50.190Z,98939.17
2023-04-09T06:16:36.650Z,98945.91
2023-04-09T06:23:22.629Z,98941.58
2023-04-09T06:34:21.100Z,98952.37
2023-04-09T06:41:09.004Z,98954.54
2023-04-09T06:52:12.785Z,98945.25
2023-04-09T07:03:23.135Z,98950.34
2023-04-09T07:07:25.840Z,98948.00
2023-04-09T07:18:38.638Z,98955.29
2023-04-09T07:29:25.423Z,98955.38
2023-04-09T07:40:19.043Z,98959.56
2023-04-09T07:43:30.447Z,98957.85
2023-04-09T07:54:34.710Z,98958.77
2023-04-09T07:57:48.308Z,98955.11
2023-04-09T08:04:35.033Z,98965.23
2023-04-09T08:07:23.942Z,98965.15
2023-04-09T08:14:14.907Z,98965.92
2023-04-09T08:17:22.979Z,98966.75
2023-04-09T08:28:41.046Z,98959.39
2023-04-09T08:31:39.087Z,98956.80
2023-04-09T08:38:28.978Z,98950.50
2023-04-09T08:45:19.687Z,98956.54
2023-04-09T08:56:28.092Z,98944.63
2023-04-09T09:03:19.255Z,98938.41
2023-04-09T09:13:23.976Z,98934.33
2023-04-09T09:16:12.173Z,98937.84
2023-04-09T09:18:45.035Z,98937.30
2023-04-09T09:21:15.791Z,98938.87
2023-04-09T09:23:46.216Z,98937.11
2023-04-09T09:26:29.074Z,98932.05
2023-04-09T09:29:00.733Z,98932.22
2023-04-09T09:31:29.157Z,98940.66
2023-04-09T09:33:57.550Z,98930.11
2023-04-09T09:36:33.781Z,98923.61
2023-04-09T09:39:10.890Z,98926.81
2023-04-09T09:41:42.647Z,98926.31
2023-04-09T09:44:13.433Z,98926.59
2023-04-09T09:46:42.765Z,98931.73
2023-04-09T09:49:12.611Z,98930.66
2023-04-09T09:51:41.718Z,98931.02
2023-04-09T09:54:13.290Z,98928.39
2023-04-09T09:56:44.184Z,98926.77
2023-04-09T09:59:31.222Z,98923.51
2023-04-09T10:02:10.381Z,98919.91
2023-04-09T10:04:42.813Z,98911.15
2023-04-09T10:07:18.080Z,98916.84
2023-04-09T10:09:51.745Z,98917.37
2023-04-09T10:12:25.673Z,98911.06
2023-04-09T10:14:57.660Z,98914.34
2023-04-09T10:17:26.676Z,98915.61
2023-04-09T10:20:36.752Z,98915.95
2023-04-09T10:23:15.502Z,98910.36
2023-04-09T10:25:46.755Z,98907.25
2023-04-09T10:28:19.018Z,98905.63
2023-04-09T10:30:48.696Z,98904.54
2023-04-09T10:33:26.771Z,98903.56
2023-04-09T10:36:02.215Z,98899.30
2023-04-09T10:38:52.784Z,98899.81
2023-04-09T10:41:29.812Z,98899.48
2023-04-09T10:43:58.488Z,98895.05
2023-04-09T10:46:37.859Z,98894.62
2023-04-09T10:49:12.406Z,98887.93
2023-04-09T10:51:41.297Z,98890.39
2023-04-09T10:54:39.753Z,98879.67
2023-04-09T10:57:08.014Z,98875.66
2023-04-09T10:59:41.609Z,98867.95
2023-04-09T11:02:18.265Z,98876.47
2023-04-09T11:05:15.472Z,98875.83
2023-04-09T11:08:14.020Z,98871.23
2023-04-09T11:10:49.809Z,98865.92
2023-04-09T11:13:21.423Z,98871.31
2023-04-09T11:15:53.518Z,98870.13
2023-04-09T11:18:26.391Z,98866.86
2023-04-09T11:20:59.943Z,98865.40
2023-04-09T11:23:28.809Z,98858.91
2023-04-09T11:25:57.140Z,98857.69
2023-04-09T11:28:27.024Z,98854.73
2023-04-09T11:30:55.346Z,98849.54
2023-04-09T11:33:23.811Z,98845.02
2023-04-09T11:35:52.140Z,98847.52
2023-04-09T11:38:20.148Z,98849.38
2023-04-09T11:40:49.074Z,98844.25
2023-04-09T11:43:18.394Z,98848.34
2023-04-09T11:45:48.862Z,98845.46
2023-04-09T11:48:19.009Z,98853.64
2023-04-09T11:50:48.445Z,98851.45
2023-04-09T11:53:20.012Z,98846.73
2023-04-09T11:55:52.667Z,98849.08
2023-04-09T11:58:25.762Z,98846.35
2023-04-09T12:00:56.551Z,98847.61
2023-04-09T12:03:34.901Z,98843.97
2023-04-09T12:06:12.656Z,98842.27
2023-04-09T12:08:40.978Z,98843.48
2023-04-09T12:11:13.107Z,98841.27
2023-04-09T12:13:44.985Z,98839.92
2023-04-09T12:16:16.236Z,98831.96
2023-04-09T12:18:47.945Z,98834.27
2023-04-09T12:21:19.129Z,98835.80
2023-04-09T12:23:49.290Z,98834.77
2023-04-09T12:26:17.485Z,98831.05
2023-04-09T12:28:48.108Z,98825.20
2023-04-09T12:31:16.798Z,98827.30
2023-04-09T12:33:45.347Z,98826.24
2023-04-09T12:36:13.568Z,98824.27
2023-04-09T12:38:41.781Z,98827.19
2023-04-09T12:41:10.036Z,98826.23
2023-04-09T12:43:39.179Z,98827.83
2023-04-09T12:46:08.432Z,98830.06
2023-04-09T12:48:36.880Z,98827.11
2023-04-09T12:51:06.130Z,98824.14
2023-04-09T12:53:34.824Z,98823.23
2023-04-09T12:56:03.377Z,98819.27
2023-04-09T12:58:31.564Z,98818.48
2023-04-09T13:01:02.370Z,98817.60
2023-04-09T13:03:32.525Z,98816.27
2023-04-09T13:06:04.304Z,98812.83
2023-04-09T13:08:36.773Z,98813.95
2023-04-09T13:11:05.397Z,98811.50
2023-04-09T13:13:33.774Z,98813.53
2023-04-09T13:16:03.455Z,98814.66
2023-04-09T13:18:32.747Z,98808.54
2023-04-09T13:21:01.204Z,98803.43
2023-04-09T13:23:33.825Z,98806.24
2023-04-09T13:26:02.204Z,98805.50
2023-04-09T13:28:34.768Z,98801.31
2023-04-09T13:31:03.720Z,98799.68
2023-04-09T13:33:32.126Z,98802.88
2023-04-09T13:36:01.578Z,98799.79
2023-04-09T13:38:31.933Z,98796.66
2023-04-09T13:41:00.565Z,98796.23
2023-04-09T13:43:31.260Z,98795.27
2023-04-09T13:46:01.915Z,98794.78
2023-04-09T13:48:34.464Z,98795.17
2023-04-09T13:51:07.578Z,98794.46
2023-04-09T13:53:36.216Z,98792.87
2023-04-09T13:56:04.572Z,98795.07
2023-04-09T13:58:32.910Z,98792.39
2023-04-09T14:01:03.012Z,98791.48
2023-04-09T14:03:31.580Z,98792.80
2023-04-09T14:06:01.879Z,98787.70
2023-04-09T14:08:33.218Z,98786.04
2023-04-09T14:11:03.642Z,98783.76
2023-04-09T14:13:31.856Z,98781.89
2023-04-09T14:16:00.725Z,98781.33
2023-04-09T14:18:31.476Z,98784.23
2023-04-09T14:21:01.236Z,98784.26
2023-04-09T14:23:30.039Z,98783.33
2023-04-09T14:26:03.573Z,98784.54
2023-04-09T14:28:32.269Z,98784.49
2023-04-09T14:31:00.826Z,98783.24
2023-04-09T14:33:32.206Z,98783.83
2023-04-09T14:36:01.602Z,98785.79
2023-04-09T14:38:30.280Z,98783.43
2023-04-09T14:40:58.596Z,98782.57
2023-04-09T14:43:30.061Z,98787.97
2023-04-09T14:45:58.501Z,98785.55
2023-04-09T14:48:26.801Z,98786.93
2023-04-09T14:50:55.016Z,98787.05
2023-04-09T14:53:45.219Z,98786.23
2023-04-09T14:56:13.417Z,98784.47
2023-04-09T14:58:42.596Z,98783.25
2023-04-09T15:01:11.193Z,98783.17
2023-04-09T15:03:42.431Z,98781.90
2023-04-09T15:06:15.105Z,98783.38
2023-04-09T15:08:45.987Z,98786.60
2023-04-09T15:11:19.005Z,98788.06
2023-04-09T15:13:47.288Z,98788.89
2023-04-09T15:16:23.804Z,98788.17
2023-04-09T15:18:52.770Z,98785.86
2023-04-09T15:21:22.333Z,98783.26
2023-04-09T15:23:51.411Z,98782.18
2023-04-09T15:26:20.930Z,98783.83
2023-04-09T15:28:49.516Z,98785.67
2023-04-09T15:31:18.043Z,98788.45
2023-04-09T15:33:47.507Z,98787.96
2023-04-09T15:36:15.920Z,98788.02
2023-04-09T15:38:44.186Z,98789.81
2023-04-09T15:41:12.589Z,98794.64
2023-04-09T15:44:00.848Z,98794.52
2023-04-09T15:46:34.236Z,98793.24
2023-04-09T15:49:02.921Z,98794.75
2023-04-09T15:51:31.589Z,98795.03
2023-04-09T15:53:59.722Z,98794.69
2023-04-09T15:56:28.901Z,98794.58
2023-04-09T15:58:59.081Z,98791.65
2023-04-09T16:01:28.612Z,98792.75
2023-04-09T16:04:03.547Z,98789.45
2023-04-09T16:06:40.863Z,98789.52
2023-04-09T16:09:26.564Z,98782.68
2023-04-09T16:12:21.687Z,98776.77
2023-04-09T16:14:51.771Z,98771.67
2023-04-09T16:17:20.028Z,98767.46
2023-04-09T16:19:48.332Z,98763.59
2023-04-09T16:22:16.830Z,98770.35
2023-04-09T16:24:45.055Z,98772.94
2023-04-09T16:27:14.585Z,98770.34
2023-04-09T16:29:43.867Z,98767.56
2023-04-09T16:32:13.670Z,98771.59
2023-04-09T16:34:46.054Z,98773.05
2023-04-09T16:37:18.842Z,98772.83
2023-04-09T16:39:47.158Z,98775.95
2023-04-09T16:42:15.485Z,98771.15
2023-04-09T16:44:44.864Z,98771.52
2023-04-09T16:47:13.095Z,98770.75
2023-04-09T16:49:43.933Z,98773.27
2023-04-09T16:52:12.463Z,98776.29
2023-04-09T16:54:40.698Z,98776.38
2023-04-09T16:57:15.597Z,98775.10
2023-04-09T16:59:48.541Z,98777.56
2023-04-09T17:02:21.804Z,98778.25
2023-04-09T17:04:51.737Z,98778.91
2023-04-09T17:07:19.952Z,98782.09
2023-04-09T17:09:48.632Z,98781.16
2023-04-09T17:12:17.435Z,98784.65
2023-04-09T17:14:45.832Z,98787.79
2023-04-09T17:17:23.857Z,98788.41
2023-04-09T17:19:52.178Z,98784.77
2023-04-09T17:22:20.793Z,98788.23
2023-04-09T17:24:49.063Z,98789.88
2023-04-09T17:27:17.820Z,98791.25
2023-04-09T17:29:46.222Z,98791.89
2023-04-09T17:32:14.494Z,98792.10
2023-04-09T17:34:42.752Z,98795.89
2023-04-09T17:37:11.361Z,98796.05
2023-04-09T17:39:44.602Z,98797.63
2023-04-09T17:42:18.075Z,98802.61
2023-04-09T17:44:46.268Z,98803.77
2023-04-09T17:47:19.693Z,98807.45
2023-04-09T17:49:48.035Z,98811.44
2023-04-09T17:52:16.452Z,98813.08
2023-04-09T17:54:45.652Z,98816.54
2023-04-09T17:57:16.625Z,98821.11
2023-04-09T17:59:47.160Z,98818.52
2023-04-09T18:02:16.995Z,98820.25
2023-04-09T18:04:45.876Z,98819.64
2023-04-09T18:07:14.825Z,98818.58
2023-04-09T18:09:43.251Z,98821.76
2023-04-09T18:12:11.889Z,98825.90
2023-04-09T18:14:41.299Z,98828.92
2023-04-09T18:17:10.504Z,98829.09
2023-04-09T18:19:38.869Z,98829.23
2023-04-09T18:22:07.366Z,98825.44
2023-04-09T18:24:35.873Z,98824.54
2023-04-09T18:27:08.060Z,98827.82
2023-04-09T18:29:37.146Z,98829.55
2023-04-09T18:32:06.649Z,98831.08
2023-04-09T18:34:36.571Z,98830.20
2023-04-09T18:37:04.917Z,98830.84
2023-04-09T18:39:34.560Z,98832.36
2023-04-09T18:42:04.090Z,98835.70
2023-04-09T18:44:36.430Z,98834.54
2023-04-09T18:47:06.485Z,98835.30
2023-04-09T18:49:35.748Z,98831.33
2023-04-09T18:52:07.933Z,98831.64
2023-04-09T18:54:37.466Z,98835.77
2023-04-09T18:57:10.619Z,98843.97
2023-04-09T18:59:46.136Z,98842.02
2023-04-09T19:02:16.770Z,98844.77
2023-04-09T19:04:47.298Z,98842.98
2023-04-09T19:07:15.820Z,98842.89
2023-04-09T19:09:45.123Z,98845.20
2023-04-09T19:12:19.215Z,98844.48
2023-04-09T19:14:47.506Z,98846.06
2023-04-09T19:17:15.884Z,98842.46
2023-04-09T19:19:46.158Z,98842.41
2023-04-09T19:22:16.394Z,98842.71
2023-04-09T19:24:46.198Z,98843.23
2023-04-09T19:27:14.413Z,98840.52
2023-04-09T19:29:45.499Z,98844.88
2023-04-09T19:32:15.118Z,98844.46
2023-04-09T19:34:43.385Z,98842.17
2023-04-09T19:37:15.168Z,98841.16
2023-04-09T19:47:35.171Z,98850.83
2023-04-09T19:50:03.462Z,98852.17
2023-04-09T19:52:32.059Z,98853.11
2023-04-09T19:55:03.918Z,98852.76
2023-04-09T19:57:33.651Z,98848.15
2023-04-09T20:00:02.165Z,98843.23
2023-04-09T20:02:41.632Z,98845.18
2023-04-09T20:05:11.747Z,98849.73
2023-04-09T20:07:40.504Z,98845.09
2023-04-09T20:10:10.595Z,98846.90
2023-04-09T20:12:39.203Z,98846.52
2023-04-09T20:15:09.984Z,98845.14
2023-04-09T20:17:41.923Z,98843.45
2023-04-09T20:20:10.917Z,98844.42
2023-04-09T20:22:43.550Z,98845.37
2023-04-09T20:25:11.998Z,98840.83
2023-04-09T20:27:40.326Z,98840.89
2023-04-09T20:30:09.165Z,98839.98
2023-04-09T20:32:38.550Z,98836.70
2023-04-09T20:35:09.494Z,98840.04
2023-04-09T20:37:38.398Z,98841.52
2023-04-09T20:40:07.594Z,98844.92
2023-04-09T20:42:36.292Z,98842.62
2023-04-09T20:45:04.872Z,98842.40
2023-04-09T20:47:38.174Z,98845.14
2023-04-09T20:50:08.769Z,98843.81
2023-04-09T20:52:37.757Z,98845.92
2023-04-09T20:55:06.643Z,98847.56
2023-04-09T20:57:34.899Z,98845.31
2023-04-09T21:00:03.529Z,98850.64
2023-04-09T21:02:34.854Z,98843.78
2023-04-09T21:05:11.795Z,98844.11
2023-04-09T21:07:50.839Z,98846.23
2023-04-09T21:10:19.389Z,98846.78
2023-04-09T21:12:47.870Z,98847.58
2023-04-09T21:15:16.213Z,98851.47
2023-04-09T21:17:46.133Z,98846.98
2023-04-09T21:20:16.868Z,98845.04
2023-04-09T21:23:05.893Z,98842.63
2023-04-09T21:25:34.514Z,98840.12
2023-04-09T21:28:04.851Z,98844.40
2023-04-09T21:30:40.492Z,98843.50
2023-04-09T21:33:09.414Z,98842.94
2023-04-09T21:35:39.093Z,98843.95
2023-04-09T21:38:07.459Z,98841.65
2023-04-09T21:40:36.552Z,98841.30
2023-04-09T21:43:04.728Z,98842.28
2023-04-09T21:45:33.147Z,98840.63
2023-04-09T21:48:01.692Z,98844.55
2023-04-09T21:50:33.431Z,98840.05
2023-04-09T21:53:03.263Z,98842.66
2023-04-09T21:55:32.144Z,98840.83
2023-04-09T21:58:01.049Z,98841.33
2023-04-09T22:00:29.628Z,98845.41
2023-04-09T22:03:01.490Z,98847.50
2023-04-09T22:05:32.836Z,98843.12
2023-04-09T22:08:01.161Z,98843.09
2023-04-09T22:10:29.412Z,98839.35
2023-04-09T22:12:57.860Z,98837.70
2023-04-09T22:15:26.032Z,98838.70
2023-04-09T22:17:55.645Z,98841.56
2023-04-09T22:20:26.316Z,98836.90
2023-04-09T22:22:55.009Z,98840.52
2023-04-09T22:25:23.057Z,98840.63
2023-04-09T22:27:55.557Z,98842.86
2023-04-09T22:30:28.542Z,98843.57
2023-04-09T22:32:58.481Z,98841.24
2023-04-09T22:35:26.623Z,98843.31
2023-04-09T22:37:55.726Z,98844.63
2023-04-09T22:40:23.838Z,98842.65
2023-04-09T22:42:51.980Z,98841.23
2023-04-09T22:45:20.492Z,98840.09
2023-04-09T22:47:48.676Z,98842.85
2023-04-09T22:50:17.130Z,98842.92
2023-04-09T22:52:46.866Z,98842.03
2023-04-09T22:55:16.623Z,98847.33
2023-04-09T22:57:45.778Z,98845.55
2023-04-09T23:00:14.589Z,98841.08
2023-04-09T23:02:43.361Z,98837.77
2023-04-09T23:05:11.947Z,98834.69
2023-04-09T23:07:40.484Z,98831.11
2023-04-09T23:10:08.996Z,98831.41
2023-04-09T23:12:37.225Z,98832.57
2023-04-09T23:15:06.587Z,98832.48
2023-04-09T23:17:35.349Z,98829.77
2023-04-09T23:20:04.042Z,98828.65
2023-04-09T23:22:32.144Z,98827.42
2023-04-09T23:25:00.319Z,98827.68
2023-04-09T23:27:29.011Z,98825.79
2023-04-09T23:29:57.440Z,98826.45
2023-04-09T23:32:25.708Z,98822.76
2023-04-09T23:34:54.420Z,98822.42
2023-04-09T23:37:22.421Z,98818.41
2023-04-09T23:39:51.078Z,98818.38
2023-04-09T23:42:22.474Z,98817.15
2023-04-09T23:44:50.748Z,98818.41
2023-04-09T23:47:18.961Z,98814.67
2023-04-09T23:49:47.162Z,98815.59
2023-04-09T23:52:15.759Z,98817.02
2023-04-09T23:54:51.132Z,98814.32
2023-04-09T23:57:19.624Z,98814.83
2023-04-09T23:59:47.932Z,98810.92
